sensor_id;sensor_type;location;lat;lon;timestamp;P1;durP1;ratioP1;P2;durP2;ratioP2
66175;SDS011;52977;44.816;20.538;2023-05-07T00:00:50;9.10;;;3.80;;
66175;SDS011;52977;44.816;20.538;2023-05-07T00:03:16;9.10;;;3.95;;
66175;SDS011;52977;44.816;20.538;2023-05-07T00:05:43;6.88;;;3.67;;
66175;SDS011;52977;44.816;20.538;2023-05-07T00:08:09;10.38;;;4.07;;
66175;SDS011;52977;44.816;20.538;2023-05-07T00:10:35;8.30;;;4.13;;
66175;SDS011;52977;44.816;20.538;2023-05-07T00:13:02;9.02;;;4.50;;
66175;SDS011;52977;44.816;20.538;2023-05-07T00:15:28;8.40;;;4.15;;
66175;SDS011;52977;44.816;20.538;2023-05-07T00:17:55;10.30;;;4.15;;
66175;SDS011;52977;44.816;20.538;2023-05-07T00:20:21;10.55;;;4.30;;
66175;SDS011;52977;44.816;20.538;2023-05-07T00:22:47;7.70;;;3.88;;
66175;SDS011;52977;44.816;20.538;2023-05-07T00:25:14;9.27;;;3.63;;
66175;SDS011;52977;44.816;20.538;2023-05-07T00:27:40;8.63;;;3.63;;
66175;SDS011;52977;44.816;20.538;2023-05-07T00:30:06;9.80;;;3.95;;
66175;SDS011;52977;44.816;20.538;2023-05-07T00:32:33;7.60;;;3.85;;
66175;SDS011;52977;44.816;20.538;2023-05-07T00:34:59;10.77;;;4.43;;
66175;SDS011;52977;44.816;20.538;2023-05-07T00:37:26;7.80;;;4.30;;
66175;SDS011;52977;44.816;20.538;2023-05-07T00:39:52;7.55;;;3.85;;
66175;SDS011;52977;44.816;20.538;2023-05-07T00:42:18;7.28;;;3.50;;
66175;SDS011;52977;44.816;20.538;2023-05-07T00:44:45;7.22;;;3.63;;
66175;SDS011;52977;44.816;20.538;2023-05-07T00:47:13;9.95;;;4.05;;
66175;SDS011;52977;44.816;20.538;2023-05-07T00:49:43;9.32;;;3.72;;
66175;SDS011;52977;44.816;20.538;2023-05-07T00:52:13;7.38;;;3.65;;
66175;SDS011;52977;44.816;20.538;2023-05-07T00:54:41;8.33;;;3.87;;
66175;SDS011;52977;44.816;20.538;2023-05-07T00:57:11;6.18;;;3.55;;
66175;SDS011;52977;44.816;20.538;2023-05-07T00:59:38;8.05;;;3.67;;
66175;SDS011;52977;44.816;20.538;2023-05-07T01:02:05;7.88;;;3.78;;
66175;SDS011;52977;44.816;20.538;2023-05-07T01:04:31;7.80;;;3.58;;
66175;SDS011;52977;44.816;20.538;2023-05-07T01:06:58;8.27;;;3.80;;
66175;SDS011;52977;44.816;20.538;2023-05-07T01:09:25;6.95;;;4.18;;
66175;SDS011;52977;44.816;20.538;2023-05-07T01:11:54;7.55;;;3.78;;
66175;SDS011;52977;44.816;20.538;2023-05-07T01:14:23;5.72;;;3.28;;
66175;SDS011;52977;44.816;20.538;2023-05-07T01:16:50;7.07;;;3.58;;
66175;SDS011;52977;44.816;20.538;2023-05-07T01:19:35;6.40;;;3.35;;
66175;SDS011;52977;44.816;20.538;2023-05-07T01:22:07;7.50;;;3.70;;
66175;SDS011;52977;44.816;20.538;2023-05-07T01:24:44;6.38;;;3.53;;
66175;SDS011;52977;44.816;20.538;2023-05-07T01:27:12;7.28;;;4.00;;
66175;SDS011;52977;44.816;20.538;2023-05-07T01:29:40;6.20;;;3.70;;
66175;SDS011;52977;44.816;20.538;2023-05-07T01:32:07;9.60;;;3.75;;
66175;SDS011;52977;44.816;20.538;2023-05-07T01:34:33;9.35;;;4.07;;
66175;SDS011;52977;44.816;20.538;2023-05-07T01:37:01;6.32;;;3.22;;
66175;SDS011;52977;44.816;20.538;2023-05-07T01:39:28;6.82;;;3.70;;
66175;SDS011;52977;44.816;20.538;2023-05-07T01:41:56;9.68;;;3.60;;
66175;SDS011;52977;44.816;20.538;2023-05-07T01:44:23;6.95;;;3.83;;
66175;SDS011;52977;44.816;20.538;2023-05-07T01:46:50;11.82;;;4.30;;
66175;SDS011;52977;44.816;20.538;2023-05-07T01:49:17;9.73;;;4.15;;
66175;SDS011;52977;44.816;20.538;2023-05-07T01:51:43;6.82;;;3.53;;
66175;SDS011;52977;44.816;20.538;2023-05-07T01:54:10;8.20;;;3.75;;
66175;SDS011;52977;44.816;20.538;2023-05-07T01:56:36;9.35;;;4.15;;
66175;SDS011;52977;44.816;20.538;2023-05-07T01:59:03;6.78;;;3.42;;
66175;SDS011;52977;44.816;20.538;2023-05-07T02:04:02;8.35;;;3.90;;
66175;SDS011;52977;44.816;20.538;2023-05-07T02:06:28;7.95;;;3.95;;
66175;SDS011;52977;44.816;20.538;2023-05-07T02:09:00;7.95;;;3.72;;
66175;SDS011;52977;44.816;20.538;2023-05-07T02:11:27;7.90;;;3.72;;
66175;SDS011;52977;44.816;20.538;2023-05-07T02:13:52;9.55;;;4.10;;
66175;SDS011;52977;44.816;20.538;2023-05-07T02:16:18;7.35;;;4.07;;
66175;SDS011;52977;44.816;20.538;2023-05-07T02:18:45;7.35;;;3.85;;
66175;SDS011;52977;44.816;20.538;2023-05-07T02:21:11;7.68;;;4.43;;
66175;SDS011;52977;44.816;20.538;2023-05-07T02:23:36;7.78;;;3.78;;
66175;SDS011;52977;44.816;20.538;2023-05-07T02:26:03;7.22;;;3.92;;
66175;SDS011;52977;44.816;20.538;2023-05-07T02:28:30;7.18;;;3.88;;
66175;SDS011;52977;44.816;20.538;2023-05-07T02:31:02;8.18;;;3.55;;
66175;SDS011;52977;44.816;20.538;2023-05-07T02:33:31;7.50;;;3.90;;
66175;SDS011;52977;44.816;20.538;2023-05-07T02:36:05;7.05;;;3.88;;
66175;SDS011;52977;44.816;20.538;2023-05-07T02:38:34;8.82;;;4.15;;
66175;SDS011;52977;44.816;20.538;2023-05-07T02:41:00;8.15;;;4.05;;
66175;SDS011;52977;44.816;20.538;2023-05-07T02:43:26;10.48;;;4.32;;
66175;SDS011;52977;44.816;20.538;2023-05-07T02:46:02;6.93;;;3.85;;
66175;SDS011;52977;44.816;20.538;2023-05-07T02:48:28;8.88;;;4.05;;
66175;SDS011;52977;44.816;20.538;2023-05-07T02:50:54;7.38;;;3.90;;
66175;SDS011;52977;44.816;20.538;2023-05-07T02:53:19;9.68;;;3.92;;
66175;SDS011;52977;44.816;20.538;2023-05-07T02:55:45;7.68;;;3.63;;
66175;SDS011;52977;44.816;20.538;2023-05-07T02:58:11;6.35;;;4.13;;
66175;SDS011;52977;44.816;20.538;2023-05-07T03:00:39;11.10;;;4.00;;
66175;SDS011;52977;44.816;20.538;2023-05-07T03:03:29;9.18;;;3.58;;
66175;SDS011;52977;44.816;20.538;2023-05-07T03:05:55;6.38;;;3.83;;
66175;SDS011;52977;44.816;20.538;2023-05-07T03:08:21;11.27;;;3.63;;
66175;SDS011;52977;44.816;20.538;2023-05-07T03:10:46;8.07;;;3.80;;
66175;SDS011;52977;44.816;20.538;2023-05-07T03:13:12;10.43;;;3.75;;
66175;SDS011;52977;44.816;20.538;2023-05-07T03:15:38;10.07;;;4.43;;
66175;SDS011;52977;44.816;20.538;2023-05-07T03:18:04;8.88;;;3.83;;
66175;SDS011;52977;44.816;20.538;2023-05-07T03:20:30;7.90;;;3.80;;
66175;SDS011;52977;44.816;20.538;2023-05-07T03:22:57;8.27;;;3.58;;
66175;SDS011;52977;44.816;20.538;2023-05-07T03:25:22;6.72;;;3.60;;
66175;SDS011;52977;44.816;20.538;2023-05-07T03:27:48;5.85;;;3.28;;
66175;SDS011;52977;44.816;20.538;2023-05-07T03:30:18;6.47;;;3.95;;
66175;SDS011;52977;44.816;20.538;2023-05-07T03:32:44;7.43;;;3.60;;
66175;SDS011;52977;44.816;20.538;2023-05-07T03:35:11;7.53;;;3.65;;
66175;SDS011;52977;44.816;20.538;2023-05-07T03:37:38;8.35;;;3.60;;
66175;SDS011;52977;44.816;20.538;2023-05-07T03:40:05;7.75;;;3.25;;
66175;SDS011;52977;44.816;20.538;2023-05-07T03:42:40;8.20;;;3.95;;
66175;SDS011;52977;44.816;20.538;2023-05-07T03:45:06;8.27;;;3.63;;
66175;SDS011;52977;44.816;20.538;2023-05-07T03:47:33;7.97;;;3.70;;
66175;SDS011;52977;44.816;20.538;2023-05-07T03:49:59;8.48;;;3.60;;
66175;SDS011;52977;44.816;20.538;2023-05-07T03:52:25;8.60;;;3.55;;
66175;SDS011;52977;44.816;20.538;2023-05-07T03:54:53;8.07;;;3.58;;
66175;SDS011;52977;44.816;20.538;2023-05-07T03:57:20;7.07;;;4.00;;
66175;SDS011;52977;44.816;20.538;2023-05-07T03:59:46;7.72;;;4.00;;
66175;SDS011;52977;44.816;20.538;2023-05-07T04:02:11;7.43;;;3.47;;
66175;SDS011;52977;44.816;20.538;2023-05-07T04:04:37;10.02;;;4.28;;
66175;SDS011;52977;44.816;20.538;2023-05-07T04:07:04;9.95;;;4.32;;
66175;SDS011;52977;44.816;20.538;2023-05-07T04:09:36;10.07;;;4.30;;
66175;SDS011;52977;44.816;20.538;2023-05-07T04:12:02;10.40;;;4.50;;
66175;SDS011;52977;44.816;20.538;2023-05-07T04:14:28;10.35;;;4.90;;
66175;SDS011;52977;44.816;20.538;2023-05-07T04:16:56;9.02;;;4.18;;
66175;SDS011;52977;44.816;20.538;2023-05-07T04:19:22;9.43;;;4.22;;
66175;SDS011;52977;44.816;20.538;2023-05-07T04:21:51;10.73;;;4.47;;
66175;SDS011;52977;44.816;20.538;2023-05-07T04:24:17;8.40;;;4.00;;
66175;SDS011;52977;44.816;20.538;2023-05-07T04:26:44;7.82;;;4.05;;
66175;SDS011;52977;44.816;20.538;2023-05-07T04:29:11;9.25;;;4.25;;
66175;SDS011;52977;44.816;20.538;2023-05-07T04:31:37;9.57;;;4.28;;
66175;SDS011;52977;44.816;20.538;2023-05-07T04:34:04;6.53;;;3.85;;
66175;SDS011;52977;44.816;20.538;2023-05-07T04:36:30;7.07;;;3.30;;
66175;SDS011;52977;44.816;20.538;2023-05-07T04:39:00;10.52;;;3.88;;
66175;SDS011;52977;44.816;20.538;2023-05-07T04:41:28;6.25;;;3.45;;
66175;SDS011;52977;44.816;20.538;2023-05-07T04:43:55;6.82;;;3.70;;
66175;SDS011;52977;44.816;20.538;2023-05-07T04:46:23;7.57;;;3.67;;
66175;SDS011;52977;44.816;20.538;2023-05-07T04:48:51;12.48;;;3.65;;
66175;SDS011;52977;44.816;20.538;2023-05-07T04:51:17;10.00;;;3.80;;
66175;SDS011;52977;44.816;20.538;2023-05-07T04:53:43;6.05;;;3.20;;
66175;SDS011;52977;44.816;20.538;2023-05-07T04:56:10;6.10;;;3.38;;
66175;SDS011;52977;44.816;20.538;2023-05-07T04:58:40;6.47;;;3.13;;
66175;SDS011;52977;44.816;20.538;2023-05-07T05:01:07;8.15;;;3.58;;
66175;SDS011;52977;44.816;20.538;2023-05-07T05:03:33;8.70;;;3.90;;
66175;SDS011;52977;44.816;20.538;2023-05-07T05:05:59;6.60;;;3.40;;
66175;SDS011;52977;44.816;20.538;2023-05-07T05:08:28;7.57;;;3.85;;
66175;SDS011;52977;44.816;20.538;2023-05-07T05:10:56;6.72;;;3.30;;
66175;SDS011;52977;44.816;20.538;2023-05-07T05:13:23;7.15;;;3.88;;
66175;SDS011;52977;44.816;20.538;2023-05-07T05:15:49;8.55;;;3.60;;
66175;SDS011;52977;44.816;20.538;2023-05-07T05:18:16;7.55;;;4.05;;
66175;SDS011;52977;44.816;20.538;2023-05-07T05:20:42;7.63;;;3.50;;
66175;SDS011;52977;44.816;20.538;2023-05-07T05:23:08;7.38;;;3.63;;
66175;SDS011;52977;44.816;20.538;2023-05-07T05:25:35;9.07;;;3.63;;
66175;SDS011;52977;44.816;20.538;2023-05-07T05:28:02;8.20;;;4.15;;
66175;SDS011;52977;44.816;20.538;2023-05-07T05:30:31;6.47;;;4.00;;
66175;SDS011;52977;44.816;20.538;2023-05-07T05:32:58;6.75;;;3.83;;
66175;SDS011;52977;44.816;20.538;2023-05-07T05:35:27;8.15;;;3.78;;
66175;SDS011;52977;44.816;20.538;2023-05-07T05:37:54;8.10;;;3.50;;
66175;SDS011;52977;44.816;20.538;2023-05-07T05:40:21;6.82;;;3.70;;
66175;SDS011;52977;44.816;20.538;2023-05-07T05:42:47;8.27;;;3.92;;
66175;SDS011;52977;44.816;20.538;2023-05-07T05:45:15;8.75;;;4.10;;
66175;SDS011;52977;44.816;20.538;2023-05-07T05:47:42;7.93;;;3.72;;
66175;SDS011;52977;44.816;20.538;2023-05-07T05:50:09;7.38;;;4.35;;
66175;SDS011;52977;44.816;20.538;2023-05-07T05:52:35;10.35;;;4.25;;
66175;SDS011;52977;44.816;20.538;2023-05-07T05:55:02;9.55;;;4.50;;
66175;SDS011;52977;44.816;20.538;2023-05-07T05:57:28;8.43;;;3.70;;
66175;SDS011;52977;44.816;20.538;2023-05-07T05:59:55;11.63;;;4.50;;
66175;SDS011;52977;44.816;20.538;2023-05-07T06:02:22;8.60;;;4.18;;
66175;SDS011;52977;44.816;20.538;2023-05-07T06:04:49;7.35;;;3.83;;
66175;SDS011;52977;44.816;20.538;2023-05-07T06:07:17;7.68;;;3.92;;
66175;SDS011;52977;44.816;20.538;2023-05-07T06:09:43;8.48;;;4.15;;
66175;SDS011;52977;44.816;20.538;2023-05-07T06:12:11;9.15;;;4.20;;
66175;SDS011;52977;44.816;20.538;2023-05-07T06:14:37;8.65;;;4.32;;
66175;SDS011;52977;44.816;20.538;2023-05-07T06:17:03;9.77;;;4.25;;
66175;SDS011;52977;44.816;20.538;2023-05-07T06:19:28;9.77;;;4.15;;
66175;SDS011;52977;44.816;20.538;2023-05-07T06:21:56;10.70;;;4.50;;
66175;SDS011;52977;44.816;20.538;2023-05-07T06:24:22;8.68;;;4.05;;
66175;SDS011;52977;44.816;20.538;2023-05-07T06:26:49;10.10;;;4.50;;
66175;SDS011;52977;44.816;20.538;2023-05-07T06:29:15;9.93;;;3.90;;
66175;SDS011;52977;44.816;20.538;2023-05-07T06:31:41;8.10;;;4.25;;
66175;SDS011;52977;44.816;20.538;2023-05-07T06:34:08;8.55;;;4.25;;
66175;SDS011;52977;44.816;20.538;2023-05-07T06:36:36;7.70;;;4.25;;
66175;SDS011;52977;44.816;20.538;2023-05-07T06:39:11;9.98;;;4.82;;
66175;SDS011;52977;44.816;20.538;2023-05-07T06:41:37;9.15;;;4.82;;
66175;SDS011;52977;44.816;20.538;2023-05-07T06:44:07;8.98;;;4.72;;
66175;SDS011;52977;44.816;20.538;2023-05-07T06:46:41;9.45;;;4.63;;
66175;SDS011;52977;44.816;20.538;2023-05-07T06:49:08;9.40;;;5.00;;
66175;SDS011;52977;44.816;20.538;2023-05-07T06:51:34;8.02;;;4.60;;
66175;SDS011;52977;44.816;20.538;2023-05-07T06:54:02;7.53;;;4.25;;
66175;SDS011;52977;44.816;20.538;2023-05-07T06:56:31;9.50;;;4.70;;
66175;SDS011;52977;44.816;20.538;2023-05-07T06:58:57;8.77;;;4.22;;
66175;SDS011;52977;44.816;20.538;2023-05-07T07:01:23;10.32;;;4.55;;
66175;SDS011;52977;44.816;20.538;2023-05-07T07:03:49;9.73;;;4.32;;
66175;SDS011;52977;44.816;20.538;2023-05-07T07:06:18;9.93;;;5.13;;
66175;SDS011;52977;44.816;20.538;2023-05-07T07:08:45;7.03;;;3.70;;
66175;SDS011;52977;44.816;20.538;2023-05-07T07:11:14;11.68;;;4.43;;
66175;SDS011;52977;44.816;20.538;2023-05-07T07:13:41;7.93;;;4.38;;
66175;SDS011;52977;44.816;20.538;2023-05-07T07:16:08;9.57;;;4.30;;
66175;SDS011;52977;44.816;20.538;2023-05-07T07:18:35;9.60;;;3.90;;
66175;SDS011;52977;44.816;20.538;2023-05-07T07:21:01;6.75;;;3.95;;
66175;SDS011;52977;44.816;20.538;2023-05-07T07:23:27;7.90;;;3.88;;
66175;SDS011;52977;44.816;20.538;2023-05-07T07:25:54;6.72;;;3.83;;
66175;SDS011;52977;44.816;20.538;2023-05-07T07:28:21;7.32;;;3.13;;
66175;SDS011;52977;44.816;20.538;2023-05-07T07:30:48;10.15;;;4.18;;
66175;SDS011;52977;44.816;20.538;2023-05-07T07:33:15;7.70;;;3.70;;
66175;SDS011;52977;44.816;20.538;2023-05-07T07:35:42;7.28;;;3.38;;
66175;SDS011;52977;44.816;20.538;2023-05-07T07:38:07;6.57;;;3.50;;
66175;SDS011;52977;44.816;20.538;2023-05-07T07:40:34;9.10;;;4.07;;
66175;SDS011;52977;44.816;20.538;2023-05-07T07:43:01;7.75;;;3.22;;
66175;SDS011;52977;44.816;20.538;2023-05-07T07:45:27;7.90;;;3.10;;
66175;SDS011;52977;44.816;20.538;2023-05-07T07:47:53;8.90;;;3.63;;
66175;SDS011;52977;44.816;20.538;2023-05-07T07:50:19;6.28;;;3.70;;
66175;SDS011;52977;44.816;20.538;2023-05-07T07:52:45;6.43;;;3.63;;
66175;SDS011;52977;44.816;20.538;2023-05-07T07:55:14;7.57;;;3.83;;
66175;SDS011;52977;44.816;20.538;2023-05-07T07:57:43;7.78;;;3.58;;
66175;SDS011;52977;44.816;20.538;2023-05-07T08:00:09;9.57;;;4.25;;
66175;SDS011;52977;44.816;20.538;2023-05-07T08:02:41;8.43;;;4.20;;
66175;SDS011;52977;44.816;20.538;2023-05-07T08:05:08;7.85;;;3.95;;
66175;SDS011;52977;44.816;20.538;2023-05-07T08:07:34;7.57;;;3.85;;
66175;SDS011;52977;44.816;20.538;2023-05-07T08:10:00;6.75;;;3.58;;
66175;SDS011;52977;44.816;20.538;2023-05-07T08:12:27;7.03;;;3.25;;
66175;SDS011;52977;44.816;20.538;2023-05-07T08:14:53;6.47;;;3.72;;
66175;SDS011;52977;44.816;20.538;2023-05-07T08:17:19;6.90;;;4.07;;
66175;SDS011;52977;44.816;20.538;2023-05-07T08:19:48;6.82;;;3.22;;
66175;SDS011;52977;44.816;20.538;2023-05-07T08:22:14;7.05;;;3.17;;
66175;SDS011;52977;44.816;20.538;2023-05-07T08:24:40;9.30;;;4.80;;
66175;SDS011;52977;44.816;20.538;2023-05-07T08:27:06;8.70;;;4.20;;
66175;SDS011;52977;44.816;20.538;2023-05-07T08:29:32;9.32;;;4.18;;
66175;SDS011;52977;44.816;20.538;2023-05-07T08:31:59;6.10;;;3.65;;
66175;SDS011;52977;44.816;20.538;2023-05-07T08:34:25;8.60;;;3.90;;
66175;SDS011;52977;44.816;20.538;2023-05-07T08:36:52;5.85;;;3.30;;
66175;SDS011;52977;44.816;20.538;2023-05-07T08:39:21;10.05;;;4.20;;
66175;SDS011;52977;44.816;20.538;2023-05-07T08:41:49;8.05;;;3.30;;
66175;SDS011;52977;44.816;20.538;2023-05-07T08:44:20;9.45;;;3.83;;
66175;SDS011;52977;44.816;20.538;2023-05-07T08:46:48;9.80;;;3.70;;
66175;SDS011;52977;44.816;20.538;2023-05-07T08:49:20;8.15;;;3.72;;
66175;SDS011;52977;44.816;20.538;2023-05-07T08:51:46;5.80;;;2.97;;
66175;SDS011;52977;44.816;20.538;2023-05-07T08:54:15;11.75;;;3.83;;
66175;SDS011;52977;44.816;20.538;2023-05-07T08:56:42;5.88;;;3.20;;
66175;SDS011;52977;44.816;20.538;2023-05-07T08:59:09;5.10;;;3.13;;
66175;SDS011;52977;44.816;20.538;2023-05-07T09:01:35;7.88;;;3.53;;
66175;SDS011;52977;44.816;20.538;2023-05-07T09:04:02;5.20;;;3.10;;
66175;SDS011;52977;44.816;20.538;2023-05-07T09:06:29;5.22;;;3.20;;
66175;SDS011;52977;44.816;20.538;2023-05-07T09:08:56;9.45;;;3.30;;
66175;SDS011;52977;44.816;20.538;2023-05-07T09:11:27;4.55;;;2.65;;
66175;SDS011;52977;44.816;20.538;2023-05-07T09:13:56;7.90;;;3.40;;
66175;SDS011;52977;44.816;20.538;2023-05-07T09:16:31;5.65;;;2.92;;
66175;SDS011;52977;44.816;20.538;2023-05-07T09:18:59;5.43;;;2.75;;
66175;SDS011;52977;44.816;20.538;2023-05-07T09:21:44;4.55;;;2.80;;
66175;SDS011;52977;44.816;20.538;2023-05-07T09:24:11;8.70;;;4.30;;
66175;SDS011;52977;44.816;20.538;2023-05-07T09:26:42;7.95;;;4.13;;
66175;SDS011;52977;44.816;20.538;2023-05-07T09:29:10;6.00;;;3.30;;
66175;SDS011;52977;44.816;20.538;2023-05-07T09:31:37;5.57;;;3.25;;
66175;SDS011;52977;44.816;20.538;2023-05-07T09:34:05;5.55;;;3.28;;
66175;SDS011;52977;44.816;20.538;2023-05-07T09:36:33;7.90;;;3.83;;
66175;SDS011;52977;44.816;20.538;2023-05-07T09:39:01;5.95;;;3.38;;
66175;SDS011;52977;44.816;20.538;2023-05-07T09:41:30;6.45;;;2.88;;
66175;SDS011;52977;44.816;20.538;2023-05-07T09:44:13;6.95;;;2.88;;
66175;SDS011;52977;44.816;20.538;2023-05-07T09:46:45;9.98;;;4.30;;
66175;SDS011;52977;44.816;20.538;2023-05-07T09:49:22;20.63;;;10.27;;
66175;SDS011;52977;44.816;20.538;2023-05-07T09:51:55;9.82;;;5.50;;
66175;SDS011;52977;44.816;20.538;2023-05-07T09:54:25;13.90;;;6.78;;
66175;SDS011;52977;44.816;20.538;2023-05-07T09:56:54;5.60;;;3.03;;
66175;SDS011;52977;44.816;20.538;2023-05-07T09:59:23;5.53;;;3.22;;
66175;SDS011;52977;44.816;20.538;2023-05-07T10:01:52;5.38;;;3.05;;
66175;SDS011;52977;44.816;20.538;2023-05-07T10:06:51;4.22;;;2.53;;
66175;SDS011;52977;44.816;20.538;2023-05-07T10:09:17;4.95;;;2.75;;
66175;SDS011;52977;44.816;20.538;2023-05-07T10:11:45;5.70;;;2.78;;
66175;SDS011;52977;44.816;20.538;2023-05-07T10:14:12;6.30;;;3.25;;
66175;SDS011;52977;44.816;20.538;2023-05-07T10:16:41;4.82;;;2.80;;
66175;SDS011;52977;44.816;20.538;2023-05-07T10:21:44;4.00;;;2.70;;
66175;SDS011;52977;44.816;20.538;2023-05-07T10:24:22;6.95;;;2.67;;
66175;SDS011;52977;44.816;20.538;2023-05-07T10:35:00;7.00;;;3.20;;
66175;SDS011;52977;44.816;20.538;2023-05-07T10:37:31;7.47;;;3.42;;
66175;SDS011;52977;44.816;20.538;2023-05-07T10:39:57;8.02;;;3.35;;
66175;SDS011;52977;44.816;20.538;2023-05-07T10:42:25;8.73;;;3.08;;
66175;SDS011;52977;44.816;20.538;2023-05-07T10:44:54;6.57;;;2.90;;
66175;SDS011;52977;44.816;20.538;2023-05-07T10:47:25;6.85;;;2.92;;
66175;SDS011;52977;44.816;20.538;2023-05-07T10:52:37;6.10;;;2.95;;
66175;SDS011;52977;44.816;20.538;2023-05-07T10:57:43;7.68;;;3.17;;
66175;SDS011;52977;44.816;20.538;2023-05-07T11:05:42;7.03;;;2.95;;
66175;SDS011;52977;44.816;20.538;2023-05-07T11:08:20;4.65;;;2.70;;
66175;SDS011;52977;44.816;20.538;2023-05-07T11:10:54;7.43;;;2.95;;
66175;SDS011;52977;44.816;20.538;2023-05-07T11:13:48;6.47;;;3.00;;
66175;SDS011;52977;44.816;20.538;2023-05-07T11:16:24;5.60;;;3.20;;
66175;SDS011;52977;44.816;20.538;2023-05-07T11:19:02;5.32;;;3.00;;
66175;SDS011;52977;44.816;20.538;2023-05-07T11:21:36;5.82;;;3.33;;
66175;SDS011;52977;44.816;20.538;2023-05-07T11:24:10;7.32;;;3.30;;
66175;SDS011;52977;44.816;20.538;2023-05-07T11:26:46;8.05;;;2.83;;
66175;SDS011;52977;44.816;20.538;2023-05-07T11:29:17;4.78;;;2.95;;
66175;SDS011;52977;44.816;20.538;2023-05-07T11:31:52;4.20;;;2.60;;
66175;SDS011;52977;44.816;20.538;2023-05-07T11:34:25;5.05;;;2.72;;
66175;SDS011;52977;44.816;20.538;2023-05-07T11:36:53;4.40;;;2.75;;
66175;SDS011;52977;44.816;20.538;2023-05-07T11:39:29;5.55;;;2.75;;
66175;SDS011;52977;44.816;20.538;2023-05-07T11:41:59;6.00;;;2.90;;
66175;SDS011;52977;44.816;20.538;2023-05-07T11:44:40;4.72;;;2.60;;
66175;SDS011;52977;44.816;20.538;2023-05-07T11:47:10;4.68;;;2.63;;
66175;SDS011;52977;44.816;20.538;2023-05-07T11:49:37;6.32;;;3.08;;
66175;SDS011;52977;44.816;20.538;2023-05-07T11:52:03;4.93;;;2.75;;
66175;SDS011;52977;44.816;20.538;2023-05-07T11:54:36;6.47;;;2.97;;
66175;SDS011;52977;44.816;20.538;2023-05-07T11:57:03;7.15;;;3.17;;
66175;SDS011;52977;44.816;20.538;2023-05-07T11:59:29;5.20;;;2.80;;
66175;SDS011;52977;44.816;20.538;2023-05-07T12:01:58;5.50;;;3.30;;
66175;SDS011;52977;44.816;20.538;2023-05-07T12:04:29;4.63;;;2.92;;
66175;SDS011;52977;44.816;20.538;2023-05-07T12:06:55;5.13;;;2.95;;
66175;SDS011;52977;44.816;20.538;2023-05-07T12:09:22;5.13;;;2.92;;
66175;SDS011;52977;44.816;20.538;2023-05-07T12:11:48;7.40;;;3.13;;
66175;SDS011;52977;44.816;20.538;2023-05-07T12:14:14;5.53;;;3.45;;
66175;SDS011;52977;44.816;20.538;2023-05-07T12:16:41;4.75;;;2.70;;
66175;SDS011;52977;44.816;20.538;2023-05-07T12:19:08;6.53;;;2.85;;
66175;SDS011;52977;44.816;20.538;2023-05-07T12:21:37;5.72;;;3.10;;
66175;SDS011;52977;44.816;20.538;2023-05-07T12:24:04;6.63;;;2.90;;
66175;SDS011;52977;44.816;20.538;2023-05-07T12:26:31;6.38;;;3.30;;
66175;SDS011;52977;44.816;20.538;2023-05-07T12:28:57;6.30;;;2.92;;
66175;SDS011;52977;44.816;20.538;2023-05-07T12:31:27;5.28;;;2.90;;
66175;SDS011;52977;44.816;20.538;2023-05-07T12:33:53;5.60;;;2.78;;
66175;SDS011;52977;44.816;20.538;2023-05-07T12:36:20;5.97;;;2.83;;
66175;SDS011;52977;44.816;20.538;2023-05-07T12:38:46;5.38;;;2.83;;
66175;SDS011;52977;44.816;20.538;2023-05-07T12:41:15;4.82;;;2.97;;
66175;SDS011;52977;44.816;20.538;2023-05-07T12:43:44;5.85;;;2.80;;
66175;SDS011;52977;44.816;20.538;2023-05-07T12:46:11;6.13;;;3.08;;
66175;SDS011;52977;44.816;20.538;2023-05-07T12:48:43;5.13;;;2.97;;
66175;SDS011;52977;44.816;20.538;2023-05-07T12:51:11;4.28;;;2.50;;
66175;SDS011;52977;44.816;20.538;2023-05-07T12:53:39;4.47;;;2.72;;
66175;SDS011;52977;44.816;20.538;2023-05-07T12:56:07;5.22;;;2.80;;
66175;SDS011;52977;44.816;20.538;2023-05-07T12:58:34;5.53;;;2.45;;
66175;SDS011;52977;44.816;20.538;2023-05-07T13:01:04;4.25;;;2.67;;
66175;SDS011;52977;44.816;20.538;2023-05-07T13:03:36;7.50;;;2.90;;
66175;SDS011;52977;44.816;20.538;2023-05-07T13:06:04;4.32;;;2.38;;
66175;SDS011;52977;44.816;20.538;2023-05-07T13:08:33;6.67;;;2.90;;
66175;SDS011;52977;44.816;20.538;2023-05-07T13:11:02;5.15;;;2.70;;
66175;SDS011;52977;44.816;20.538;2023-05-07T13:13:30;5.85;;;2.80;;
66175;SDS011;52977;44.816;20.538;2023-05-07T13:15:57;8.48;;;2.80;;
66175;SDS011;52977;44.816;20.538;2023-05-07T13:18:26;4.80;;;2.58;;
66175;SDS011;52977;44.816;20.538;2023-05-07T13:20:53;5.60;;;3.08;;
66175;SDS011;52977;44.816;20.538;2023-05-07T13:23:19;6.13;;;2.90;;
66175;SDS011;52977;44.816;20.538;2023-05-07T13:25:45;5.45;;;3.00;;
66175;SDS011;52977;44.816;20.538;2023-05-07T13:30:42;7.70;;;2.50;;
66175;SDS011;52977;44.816;20.538;2023-05-07T13:33:08;5.90;;;2.88;;
66175;SDS011;52977;44.816;20.538;2023-05-07T13:35:35;6.32;;;2.67;;
66175;SDS011;52977;44.816;20.538;2023-05-07T13:38:01;7.72;;;2.90;;
66175;SDS011;52977;44.816;20.538;2023-05-07T13:40:27;6.22;;;2.97;;
66175;SDS011;52977;44.816;20.538;2023-05-07T13:42:56;5.75;;;2.72;;
66175;SDS011;52977;44.816;20.538;2023-05-07T13:45:24;4.28;;;2.60;;
66175;SDS011;52977;44.816;20.538;2023-05-07T13:47:55;5.47;;;3.15;;
66175;SDS011;52977;44.816;20.538;2023-05-07T13:50:22;7.22;;;2.88;;
66175;SDS011;52977;44.816;20.538;2023-05-07T13:52:49;3.95;;;2.70;;
66175;SDS011;52977;44.816;20.538;2023-05-07T13:55:18;6.43;;;2.75;;
66175;SDS011;52977;44.816;20.538;2023-05-07T13:57:44;5.63;;;2.90;;
66175;SDS011;52977;44.816;20.538;2023-05-07T14:00:10;5.25;;;2.90;;
66175;SDS011;52977;44.816;20.538;2023-05-07T14:02:40;4.47;;;2.80;;
66175;SDS011;52977;44.816;20.538;2023-05-07T14:05:07;6.32;;;2.80;;
66175;SDS011;52977;44.816;20.538;2023-05-07T14:07:33;5.60;;;2.85;;
66175;SDS011;52977;44.816;20.538;2023-05-07T14:09:59;5.43;;;2.75;;
66175;SDS011;52977;44.816;20.538;2023-05-07T14:12:26;8.82;;;3.03;;
66175;SDS011;52977;44.816;20.538;2023-05-07T14:14:52;5.88;;;2.80;;
66175;SDS011;52977;44.816;20.538;2023-05-07T14:17:18;4.53;;;2.70;;
66175;SDS011;52977;44.816;20.538;2023-05-07T14:19:45;5.10;;;3.22;;
66175;SDS011;52977;44.816;20.538;2023-05-07T14:22:13;4.10;;;2.53;;
66175;SDS011;52977;44.816;20.538;2023-05-07T14:24:39;5.93;;;2.75;;
66175;SDS011;52977;44.816;20.538;2023-05-07T14:27:05;5.35;;;2.90;;
66175;SDS011;52977;44.816;20.538;2023-05-07T14:29:32;4.93;;;2.80;;
66175;SDS011;52977;44.816;20.538;2023-05-07T14:31:58;5.30;;;2.70;;
66175;SDS011;52977;44.816;20.538;2023-05-07T14:34:24;5.28;;;2.55;;
66175;SDS011;52977;44.816;20.538;2023-05-07T14:36:51;6.63;;;2.75;;
66175;SDS011;52977;44.816;20.538;2023-05-07T14:39:18;6.18;;;2.83;;
66175;SDS011;52977;44.816;20.538;2023-05-07T14:41:44;5.85;;;2.70;;
66175;SDS011;52977;44.816;20.538;2023-05-07T14:44:10;7.28;;;2.92;;
66175;SDS011;52977;44.816;20.538;2023-05-07T14:46:35;4.70;;;2.63;;
66175;SDS011;52977;44.816;20.538;2023-05-07T14:49:01;5.03;;;2.42;;
66175;SDS011;52977;44.816;20.538;2023-05-07T14:51:29;4.55;;;2.30;;
66175;SDS011;52977;44.816;20.538;2023-05-07T14:53:56;5.07;;;2.75;;
66175;SDS011;52977;44.816;20.538;2023-05-07T14:56:22;5.75;;;2.45;;
66175;SDS011;52977;44.816;20.538;2023-05-07T14:58:48;3.65;;;2.28;;
66175;SDS011;52977;44.816;20.538;2023-05-07T15:01:14;5.47;;;2.53;;
66175;SDS011;52977;44.816;20.538;2023-05-07T15:03:40;5.57;;;2.53;;
66175;SDS011;52977;44.816;20.538;2023-05-07T15:06:07;4.65;;;2.50;;